createdAt,value
2022-07-30T00:00:38.159Z,92.31
2022-07-30T00:03:07.430Z,92.25
2022-07-30T00:05:36.977Z,92.16
2022-07-30T00:08:06.477Z,92.13
2022-07-30T00:10:35.892Z,92.16
2022-07-30T00:13:05.182Z,92.16
2022-07-30T00:15:34.854Z,92.22
2022-07-30T00:18:04.289Z,92.41
2022-07-30T00:20:34.009Z,92.60
2022-07-30T00:23:05.519Z,92.87
2022-07-30T00:25:35.168Z,93.14
2022-07-30T00:28:04.778Z,93.16
2022-07-30T00:30:34.374Z,93.25
2022-07-30T00:33:03.996Z,93.11
2022-07-30T00:35:33.255Z,93.28
2022-07-30T00:38:02.699Z,93.36
2022-07-30T00:40:32.028Z,93.34
2022-07-30T00:43:01.369Z,93.29
2022-07-30T00:45:30.863Z,93.22
2022-07-30T00:48:01.616Z,93.23
2022-07-30T00:50:30.877Z,93.11
2022-07-30T00:53:00.772Z,93.12
2022-07-30T00:55:30.369Z,93.27
2022-07-30T00:58:00.081Z,93.54
2022-07-30T01:00:29.890Z,93.77
2022-07-30T01:03:00.143Z,93.72
2022-07-30T01:05:29.521Z,93.62
2022-07-30T01:07:58.888Z,93.45
2022-07-30T01:10:28.155Z,93.57
2022-07-30T01:12:59.141Z,93.59
2022-07-30T01:15:28.525Z,93.89
2022-07-30T01:18:00.562Z,94.00
2022-07-30T01:20:48.253Z,93.82
2022-07-30T01:23:20.727Z,93.91
2022-07-30T01:25:53.358Z,93.79
2022-07-30T01:28:27.799Z,93.87
2022-07-30T01:30:58.487Z,94.07
2022-07-30T01:33:29.360Z,94.09
2022-07-30T01:36:01.442Z,94.18
2022-07-30T01:38:35.277Z,94.19
2022-07-30T01:41:04.805Z,94.01
2022-07-30T01:43:36.198Z,94.30
2022-07-30T01:46:06.881Z,93.97
2022-07-30T01:48:38.181Z,94.14
2022-07-30T01:51:08.171Z,94.24
2022-07-30T01:53:40.530Z,94.47
2022-07-30T01:56:12.256Z,94.53
2022-07-30T01:58:43.869Z,94.64
2022-07-30T02:01:18.065Z,94.69
2022-07-30T02:03:47.462Z,95.03
2022-07-30T02:06:22.457Z,94.93
2022-07-30T02:09:00.576Z,94.87
2022-07-30T02:11:51.796Z,95.00
2022-07-30T02:14:26.833Z,95.47
2022-07-30T02:16:59.429Z,95.72
2022-07-30T02:19:32.581Z,96.03
2022-07-30T02:22:08.615Z,96.07
2022-07-30T02:24:38.903Z,96.21
2022-07-30T02:27:11.630Z,96.21
2022-07-30T02:29:42.360Z,96.19
2022-07-30T02:32:14.954Z,96.43
2022-07-30T02:34:45.815Z,96.25
2022-07-30T02:37:16.881Z,96.02
2022-07-30T02:39:47.946Z,96.03
2022-07-30T02:42:17.697Z,96.27
2022-07-30T02:44:50.581Z,96.32
2022-07-30T02:47:23.110Z,96.43
2022-07-30T02:49:55.075Z,96.37
2022-07-30T02:52:26.086Z,96.30
2022-07-30T02:54:57.214Z,96.54
2022-07-30T02:57:26.930Z,97.02
2022-07-30T02:59:57.512Z,97.26
2022-07-30T03:02:31.481Z,97.48
2022-07-30T03:05:04.373Z,97.08
2022-07-30T03:07:34.879Z,97.24
2022-07-30T03:10:04.697Z,97.57
2022-07-30T03:12:35.455Z,97.84
2022-07-30T03:15:05.148Z,98.25
2022-07-30T03:17:39.863Z,98.65
2022-07-30T03:20:11.758Z,98.92
2022-07-30T03:22:49.203Z,99.02
2022-07-30T03:25:21.626Z,99.17
2022-07-30T03:27:52.807Z,99.04
2022-07-30T03:30:23.984Z,98.94
2022-07-30T03:32:57.411Z,99.16
2022-07-30T03:35:27.415Z,99.37
2022-07-30T03:37:58.553Z,99.31
2022-07-30T03:40:28.767Z,99.44
2022-07-30T03:42:58.149Z,99.58
2022-07-30T03:45:27.976Z,99.79
2022-07-30T03:47:59.597Z,99.52
2022-07-30T03:50:29.599Z,99.41
2022-07-30T03:52:59.304Z,99.42
2022-07-30T03:55:30.172Z,99.35
2022-07-30T03:58:02.867Z,99.62
2022-07-30T04:00:32.297Z,99.26
2022-07-30T04:03:01.796Z,99.02
2022-07-30T04:05:41.323Z,99.07
2022-07-30T04:08:03.976Z,99.26
2022-07-30T04:10:35.621Z,99.10
2022-07-30T04:13:15.889Z,99.20
2022-07-30T04:16:37.717Z,99.04
2022-07-30T04:18:32.647Z,98.92
2022-07-30T04:21:04.418Z,98.89
2022-07-30T04:23:34.515Z,98.80
2022-07-30T04:26:05.946Z,98.64
2022-07-30T04:28:36.521Z,98.64
2022-07-30T04:31:06.906Z,98.54
2022-07-30T04:33:36.528Z,98.67
2022-07-30T04:36:14.966Z,98.58
2022-07-30T04:38:41.947Z,98.58
2022-07-30T04:41:12.207Z,98.36
2022-07-30T04:43:59.671Z,98.29
2022-07-30T04:46:30.690Z,98.17
2022-07-30T04:49:00.198Z,97.92
2022-07-30T04:51:36.033Z,97.60
2022-07-30T04:54:08.112Z,97.39
2022-07-30T04:56:39.171Z,96.84
2022-07-30T04:59:09.080Z,96.58
2022-07-30T05:01:41.058Z,96.37
2022-07-30T05:04:11.974Z,96.08
2022-07-30T05:06:42.056Z,95.83
2022-07-30T05:09:12.231Z,95.44
2022-07-30T05:11:41.568Z,95.22
2022-07-30T05:14:11.843Z,94.97
2022-07-30T05:16:41.101Z,94.99
2022-07-30T05:19:10.843Z,94.69
2022-07-30T05:21:40.152Z,94.19
2022-07-30T05:24:09.726Z,93.63
2022-07-30T05:26:40.870Z,93.24
2022-07-30T05:29:19.491Z,92.88
2022-07-30T05:31:47.521Z,92.54
2022-07-30T05:34:17.717Z,92.27
2022-07-30T05:36:47.523Z,91.69
2022-07-30T05:39:18.687Z,91.39
2022-07-30T05:42:06.132Z,90.57
2022-07-30T05:44:37.089Z,90.05
2022-07-30T05:47:06.684Z,89.92
2022-07-30T05:49:36.445Z,89.20
2022-07-30T05:52:07.778Z,88.36
2022-07-30T05:54:37.113Z,86.78
2022-07-30T05:57:11.527Z,85.93
2022-07-30T05:59:41.980Z,85.58
2022-07-30T06:02:12.986Z,83.50
2022-07-30T06:04:50.304Z,78.58
2022-07-30T06:07:19.937Z,74.06
2022-07-30T06:09:49.445Z,76.25
2022-07-30T06:12:18.853Z,79.35
2022-07-30T06:14:48.505Z,80.45
2022-07-30T06:17:19.471Z,81.16
2022-07-30T06:19:50.950Z,79.29
2022-07-30T06:22:25.544Z,80.13
2022-07-30T06:24:53.717Z,80.34
2022-07-30T06:27:25.949Z,79.99
2022-07-30T06:29:55.701Z,79.49
2022-07-30T06:32:24.955Z,80.87
2022-07-30T06:35:02.459Z,80.76
2022-07-30T06:38:05.828Z,80.08
2022-07-30T06:39:58.758Z,79.55
2022-07-30T06:42:29.408Z,80.11
2022-07-30T06:45:06.724Z,77.71
2022-07-30T06:47:59.114Z,78.94
2022-07-30T06:50:30.172Z,80.33
2022-07-30T06:52:59.816Z,80.10
2022-07-30T06:55:30.773Z,78.59
2022-07-30T06:58:01.938Z,78.18
2022-07-30T07:00:49.364Z,77.90
2022-07-30T07:03:20.032Z,78.72
2022-07-30T07:05:49.349Z,78.74
2022-07-30T07:08:18.991Z,77.65
2022-07-30T07:10:50.045Z,77.51
2022-07-30T07:13:30.019Z,76.90
2022-07-30T07:15:59.734Z,77.49
2022-07-30T07:18:29.185Z,76.52
2022-07-30T07:21:03.414Z,76.49
2022-07-30T07:23:41.411Z,76.19
2022-07-30T07:26:04.170Z,75.44
2022-07-30T07:28:34.268Z,75.16
2022-07-30T07:31:04.332Z,75.51
2022-07-30T07:33:33.863Z,75.61
2022-07-30T07:36:03.597Z,75.41
2022-07-30T07:38:34.378Z,75.29
2022-07-30T07:41:05.453Z,75.23
2022-07-30T07:43:35.248Z,75.36
2022-07-30T07:46:04.909Z,75.21
2022-07-30T07:48:35.093Z,74.76
2022-07-30T07:51:09.660Z,74.12
2022-07-30T07:53:39.455Z,72.93
2022-07-30T07:56:08.896Z,73.38
2022-07-30T07:58:40.491Z,73.51
2022-07-30T08:01:11.675Z,73.95
2022-07-30T08:03:55.024Z,71.26
2022-07-30T08:06:29.053Z,71.14
2022-07-30T08:09:01.663Z,70.01
2022-07-30T08:11:35.739Z,69.25
2022-07-30T08:14:09.482Z,70.37
2022-07-30T08:16:55.634Z,69.81
2022-07-30T08:19:29.455Z,69.43
2022-07-30T08:22:00.431Z,67.80
2022-07-30T08:24:31.521Z,67.38
2022-07-30T08:27:01.541Z,68.55
2022-07-30T08:29:31.401Z,67.28
2022-07-30T08:32:01.853Z,66.69
2022-07-30T08:34:31.709Z,66.81
2022-07-30T08:37:01.147Z,67.05
2022-07-30T08:39:30.917Z,67.35
2022-07-30T08:42:01.683Z,65.84
2022-07-30T08:44:31.931Z,65.88
2022-07-30T08:47:01.764Z,64.64
2022-07-30T08:49:36.226Z,65.42
2022-07-30T08:52:08.370Z,65.16
2022-07-30T08:54:41.894Z,64.56
2022-07-30T08:57:13.477Z,66.01
2022-07-30T09:00:00.095Z,64.92
2022-07-30T09:02:15.579Z,64.92
2022-07-30T09:04:48.287Z,63.52
2022-07-30T09:07:18.328Z,63.50
2022-07-30T09:09:48.116Z,61.97
2022-07-30T09:12:36.263Z,60.98
2022-07-30T09:15:16.538Z,60.07
2022-07-30T09:17:54.028Z,61.27
2022-07-30T09:20:26.290Z,58.55
2022-07-30T09:22:57.851Z,58.52
2022-07-30T09:25:47.912Z,58.59
2022-07-30T09:28:35.658Z,58.82
2022-07-30T09:31:19.314Z,60.29
2022-07-30T09:34:09.436Z,59.67
2022-07-30T09:36:46.875Z,57.48
2022-07-30T09:39:37.269Z,60.52
2022-07-30T09:42:21.841Z,54.21
2022-07-30T09:44:54.187Z,56.65
2022-07-30T09:47:36.059Z,56.07
2022-07-30T09:50:11.250Z,52.60
2022-07-30T09:52:43.957Z,52.44
2022-07-30T09:55:15.481Z,49.14
2022-07-30T09:57:59.047Z,45.51
2022-07-30T10:00:30.323Z,41.61
2022-07-30T10:03:21.773Z,39.35
2022-07-30T10:06:08.330Z,36.06
2022-07-30T10:08:42.570Z,33.42
2022-07-30T10:11:16.382Z,32.26
2022-07-30T10:13:47.057Z,31.18
2022-07-30T10:16:18.319Z,32.32
2022-07-30T10:18:48.405Z,30.50
2022-07-30T10:21:37.280Z,30.60
2022-07-30T10:24:27.669Z,30.79
2022-07-30T10:27:14.968Z,32.79
2022-07-30T10:30:04.433Z,32.12
2022-07-30T10:32:35.234Z,33.40
2022-07-30T10:35:05.200Z,33.36
2022-07-30T10:37:36.328Z,31.13
2022-07-30T10:40:23.028Z,32.58
2022-07-30T10:42:54.867Z,34.83
2022-07-30T10:45:30.416Z,36.50
2022-07-30T10:48:00.211Z,34.62
2022-07-30T10:50:29.814Z,36.69
2022-07-30T10:53:01.328Z,37.17
2022-07-30T10:55:38.499Z,38.30
2022-07-30T10:58:12.368Z,37.79
2022-07-30T11:00:59.094Z,40.15
2022-07-30T11:03:40.265Z,39.54
2022-07-30T11:06:24.355Z,42.68
2022-07-30T11:08:50.660Z,41.71
2022-07-30T11:12:01.160Z,41.09
2022-07-30T11:14:02.497Z,41.35
2022-07-30T11:16:37.786Z,43.10
2022-07-30T11:21:42.348Z,42.96
2022-07-30T11:24:45.632Z,43.33
2022-07-30T11:27:37.212Z,43.78
2022-07-30T11:30:09.767Z,45.25
2022-07-30T11:32:39.208Z,44.81
2022-07-30T11:35:25.564Z,45.52
2022-07-30T11:38:07.738Z,45.65
2022-07-30T11:40:52.225Z,49.11
2022-07-30T11:43:36.007Z,50.96
2022-07-30T11:46:29.587Z,51.58
2022-07-30T11:48:59.778Z,50.56
2022-07-30T11:51:30.675Z,50.55
2022-07-30T11:54:07.873Z,51.61
2022-07-30T11:56:37.305Z,52.74
2022-07-30T11:59:08.368Z,51.91
2022-07-30T12:01:37.717Z,54.49
2022-07-30T12:04:09.200Z,54.76
2022-07-30T12:06:49.031Z,52.05
2022-07-30T12:09:27.829Z,51.42
2022-07-30T12:11:57.921Z,51.80
2022-07-30T12:14:27.148Z,52.39
2022-07-30T12:16:56.496Z,51.69
2022-07-30T12:19:25.742Z,52.02
2022-07-30T12:21:58.313Z,49.66
2022-07-30T12:24:28.114Z,49.91
2022-07-30T12:27:08.208Z,48.30
2022-07-30T12:29:37.729Z,46.78
2022-07-30T12:32:07.104Z,46.02
2022-07-30T12:34:36.409Z,45.60
2022-07-30T12:37:10.482Z,44.21
2022-07-30T12:39:40.432Z,42.33
2022-07-30T12:42:13.128Z,41.08
2022-07-30T12:44:45.436Z,42.33
2022-07-30T12:47:28.888Z,44.19
2022-07-30T12:50:00.814Z,42.75
2022-07-30T12:52:35.564Z,40.95
2022-07-30T12:55:08.677Z,41.44
2022-07-30T12:58:05.425Z,42.98
2022-07-30T13:00:36.348Z,41.77
2022-07-30T13:03:08.780Z,42.53
2022-07-30T13:05:56.354Z,40.65
2022-07-30T13:08:51.099Z,38.39
2022-07-30T13:11:22.592Z,37.76
2022-07-30T13:13:52.645Z,37.56
2022-07-30T13:16:22.613Z,40.49
2022-07-30T13:18:51.899Z,41.37
2022-07-30T13:21:21.211Z,40.16
2022-07-30T13:23:50.480Z,41.25
2022-07-30T13:26:20.050Z,41.43
2022-07-30T13:28:49.703Z,41.80
2022-07-30T13:31:19.352Z,40.21
2022-07-30T13:33:49.947Z,38.77
2022-07-30T13:36:19.263Z,38.03
2022-07-30T13:38:52.239Z,40.97
2022-07-30T13:41:19.920Z,42.01
2022-07-30T13:43:50.155Z,41.40
2022-07-30T13:46:19.430Z,41.06
2022-07-30T13:48:48.835Z,40.19
2022-07-30T13:51:18.688Z,41.33
2022-07-30T13:53:47.921Z,40.84
2022-07-30T13:56:19.641Z,41.23
2022-07-30T13:58:48.555Z,39.75
2022-07-30T14:01:19.494Z,41.77
2022-07-30T14:03:50.887Z,42.29
2022-07-30T14:06:23.388Z,43.35
2022-07-30T14:08:52.639Z,40.32
2022-07-30T14:11:21.976Z,40.71
2022-07-30T14:13:52.014Z,42.26
2022-07-30T14:16:43.525Z,43.72
2022-07-30T14:18:52.303Z,42.89
2022-07-30T14:21:22.002Z,43.72
2022-07-30T14:23:51.286Z,42.39
2022-07-30T14:26:20.609Z,43.40
2022-07-30T14:28:49.862Z,42.78
2022-07-30T14:31:19.286Z,42.93
2022-07-30T14:33:48.513Z,43.87
2022-07-30T14:36:17.803Z,44.17
2022-07-30T14:38:47.154Z,44.35
2022-07-30T14:41:16.549Z,45.66
2022-07-30T14:43:45.785Z,45.71
2022-07-30T14:46:15.287Z,45.01
2022-07-30T14:48:44.937Z,45.26
2022-07-30T14:51:20.735Z,44.90
2022-07-30T14:53:47.145Z,46.22
2022-07-30T14:56:17.861Z,43.94
2022-07-30T14:58:47.483Z,45.51
2022-07-30T15:01:17.250Z,45.80
2022-07-30T15:03:46.811Z,43.45
2022-07-30T15:06:17.267Z,45.01
2022-07-30T15:08:46.589Z,44.30
2022-07-30T15:11:15.872Z,45.30
2022-07-30T15:13:50.588Z,48.44
2022-07-30T15:16:17.151Z,47.31
2022-07-30T15:18:46.682Z,49.09
2022-07-30T15:21:16.094Z,47.94
2022-07-30T15:23:45.509Z,48.24
2022-07-30T15:26:14.833Z,48.81
2022-07-30T15:28:44.169Z,49.09
2022-07-30T15:31:13.403Z,49.86
2022-07-30T15:33:44.630Z,50.92
2022-07-30T15:36:14.034Z,51.91
2022-07-30T15:38:43.687Z,51.77
2022-07-30T15:41:14.656Z,52.84
2022-07-30T15:43:44.649Z,53.87
2022-07-30T15:46:13.897Z,55.09
2022-07-30T15:48:43.183Z,55.25
2022-07-30T15:51:12.852Z,54.54
2022-07-30T15:53:42.290Z,53.67
2022-07-30T15:56:11.632Z,53.98
2022-07-30T15:58:43.574Z,53.82
2022-07-30T16:01:12.174Z,54.58
2022-07-30T16:03:41.512Z,55.07
2022-07-30T16:06:10.802Z,57.47
2022-07-30T16:08:40.062Z,57.40
2022-07-30T16:11:10.875Z,57.93
2022-07-30T16:13:40.549Z,58.08
2022-07-30T16:16:10.134Z,58.13
2022-07-30T16:18:39.416Z,56.82
2022-07-30T16:21:08.821Z,56.83
2022-07-30T16:23:39.039Z,56.25
2022-07-30T16:26:09.133Z,55.71
2022-07-30T16:28:39.896Z,57.05
2022-07-30T16:31:09.154Z,56.83
2022-07-30T16:33:38.383Z,57.10
2022-07-30T16:36:08.269Z,57.51
2022-07-30T16:38:38.249Z,58.18
2022-07-30T16:41:12.923Z,59.58
2022-07-30T16:43:38.859Z,59.01
2022-07-30T16:46:08.325Z,57.85
2022-07-30T16:48:37.691Z,56.80
2022-07-30T16:51:07.670Z,56.75
2022-07-30T16:53:38.592Z,57.19
2022-07-30T16:56:07.894Z,57.69
2022-07-30T16:58:37.248Z,56.64
2022-07-30T17:01:06.587Z,56.34
2022-07-30T17:03:36.667Z,56.66
2022-07-30T17:06:05.951Z,56.87
2022-07-30T17:08:35.402Z,56.59
2022-07-30T17:11:08.890Z,57.85
2022-07-30T17:13:36.891Z,58.22
2022-07-30T17:16:07.262Z,58.69
2022-07-30T17:18:36.559Z,58.64
2022-07-30T17:21:05.810Z,58.13
2022-07-30T17:23:36.233Z,57.78
2022-07-30T17:26:05.994Z,56.39
2022-07-30T17:28:35.658Z,56.49
2022-07-30T17:31:05.359Z,56.32
2022-07-30T17:33:34.738Z,56.03
2022-07-30T17:36:05.025Z,55.53
2022-07-30T17:38:34.317Z,55.92
2022-07-30T17:41:03.661Z,57.85
2022-07-30T17:43:32.895Z,57.17
2022-07-30T17:46:02.518Z,57.80
2022-07-30T17:48:31.855Z,58.95
2022-07-30T17:51:01.954Z,58.72
2022-07-30T17:53:31.551Z,61.53
2022-07-30T17:56:02.499Z,60.73
2022-07-30T17:58:31.902Z,59.13
2022-07-30T18:01:02.795Z,60.82
2022-07-30T18:03:32.809Z,60.20
2022-07-30T18:06:02.217Z,59.10
2022-07-30T18:08:32.802Z,61.57
2022-07-30T18:11:02.142Z,60.43
2022-07-30T18:13:31.401Z,59.86
2022-07-30T18:16:00.726Z,58.58
2022-07-30T18:18:29.946Z,59.12
2022-07-30T18:20:59.305Z,58.46
2022-07-30T18:23:34.725Z,58.14
2022-07-30T18:25:59.929Z,56.33
2022-07-30T18:28:29.172Z,56.63
2022-07-30T18:30:58.442Z,57.00
2022-07-30T18:33:27.777Z,57.19
2022-07-30T18:35:57.064Z,56.80
2022-07-30T18:38:26.453Z,55.56
2022-07-30T18:40:58.766Z,55.92
2022-07-30T18:43:29.521Z,56.15
2022-07-30T18:46:00.333Z,56.26
2022-07-30T18:48:29.559Z,56.96
2022-07-30T18:50:58.806Z,56.70
2022-07-30T18:53:28.740Z,57.16
2022-07-30T18:55:58.044Z,57.68
2022-07-30T18:58:27.284Z,57.21
2022-07-30T19:00:56.599Z,57.32
2022-07-30T19:03:25.943Z,57.03
2022-07-30T19:05:55.216Z,57.33
2022-07-30T19:08:24.537Z,58.08
2022-07-30T19:10:54.399Z,58.49
2022-07-30T19:13:24.529Z,59.03
2022-07-30T19:15:54.322Z,59.24
2022-07-30T19:18:23.677Z,59.58
2022-07-30T19:20:53.402Z,58.80
2022-07-30T19:23:22.739Z,58.85
2022-07-30T19:25:51.966Z,59.45
2022-07-30T19:28:21.244Z,59.18
2022-07-30T19:30:50.518Z,59.53
2022-07-30T19:33:20.663Z,59.54
2022-07-30T19:35:50.290Z,60.04
2022-07-30T19:38:22.138Z,60.19
2022-07-30T19:40:50.644Z,60.51
2022-07-30T19:43:24.079Z,60.74
2022-07-30T19:45:51.096Z,60.07
2022-07-30T19:48:29.631Z,61.26
2022-07-30T19:50:51.490Z,60.67
2022-07-30T19:53:20.732Z,60.72
2022-07-30T19:55:51.179Z,60.25
2022-07-30T19:58:21.732Z,60.72
2022-07-30T20:00:52.835Z,61.07
2022-07-30T20:03:25.540Z,61.70
2022-07-30T20:05:57.591Z,61.79
2022-07-30T20:08:24.777Z,61.99
2022-07-30T20:10:57.700Z,61.98
2022-07-30T20:13:45.121Z,61.54
2022-07-30T20:15:58.754Z,61.49
2022-07-30T20:18:29.154Z,61.37
2022-07-30T20:20:58.725Z,60.86
2022-07-30T20:23:29.469Z,61.08
2022-07-30T20:26:00.080Z,61.47
2022-07-30T20:28:29.874Z,61.62
2022-07-30T20:30:59.744Z,61.32
2022-07-30T20:33:35.808Z,61.67
2022-07-30T20:36:00.867Z,62.51
2022-07-30T20:38:30.404Z,62.28
2022-07-30T20:41:03.445Z,62.25
2022-07-30T20:43:34.553Z,62.29
2022-07-30T20:46:06.838Z,62.26
2022-07-30T20:48:37.859Z,62.62
2022-07-30T20:51:09.483Z,63.43
2022-07-30T20:53:38.485Z,63.23
2022-07-30T20:56:07.732Z,63.14
2022-07-30T20:58:37.205Z,64.64
2022-07-30T21:01:06.635Z,64.62
2022-07-30T21:03:37.458Z,64.00
2022-07-30T21:06:07.021Z,64.20
2022-07-30T21:08:36.300Z,64.60
2022-07-30T21:11:06.357Z,66.05
2022-07-30T21:13:37.658Z,66.71
2022-07-30T21:18:39.183Z,66.40
2022-07-30T21:21:09.505Z,66.38
2022-07-30T21:23:40.541Z,66.25
2022-07-30T21:28:40.747Z,67.75
2022-07-30T21:31:10.060Z,68.44
2022-07-30T21:33:39.477Z,69.13
2022-07-30T21:36:10.264Z,70.22
2022-07-30T21:38:41.852Z,70.15
2022-07-30T21:41:14.353Z,70.30
2022-07-30T21:43:45.078Z,70.91
2022-07-30T21:46:15.238Z,70.87
2022-07-30T21:48:47.043Z,70.92
2022-07-30T21:51:16.472Z,71.08
2022-07-30T21:53:46.530Z,71.18
2022-07-30T21:56:16.372Z,70.34
2022-07-30T21:58:45.786Z,70.28
2022-07-30T22:01:18.680Z,70.01
2022-07-30T22:04:04.012Z,68.87
2022-07-30T22:06:20.528Z,69.56
2022-07-30T22:08:51.585Z,69.33
2022-07-30T22:11:20.897Z,69.19
2022-07-30T22:13:53.674Z,69.17
2022-07-30T22:16:21.879Z,68.94
2022-07-30T22:18:51.134Z,69.00
2022-07-30T22:21:21.870Z,68.24
2022-07-30T22:23:58.151Z,67.03
2022-07-30T22:26:24.248Z,65.86
2022-07-30T22:28:55.101Z,67.37
2022-07-30T22:31:24.544Z,66.36
2022-07-30T22:33:55.513Z,65.34
2022-07-30T22:36:26.661Z,65.06
2022-07-30T22:38:58.711Z,64.71
2022-07-30T22:41:28.910Z,64.50
2022-07-30T22:43:57.914Z,64.58
2022-07-30T22:46:31.030Z,65.52
2022-07-30T22:48:59.207Z,65.44
2022-07-30T22:51:42.383Z,65.81
2022-07-30T22:54:12.572Z,65.59
2022-07-30T22:56:31.068Z,65.81
2022-07-30T22:59:01.739Z,66.05
2022-07-30T23:01:32.754Z,66.35
2022-07-30T23:04:02.044Z,66.26
2022-07-30T23:06:31.375Z,65.93
2022-07-30T23:09:02.519Z,65.39
2022-07-30T23:11:37.299Z,65.20
2022-07-30T23:12:27.039Z,66.54
2022-07-30T23:12:27.315Z,66.66
2022-07-30T23:14:02.857Z,65.55
2022-07-30T23:16:32.178Z,66.35
2022-07-30T23:19:01.703Z,66.50
2022-07-30T23:21:31.206Z,66.26
2022-07-30T23:24:00.854Z,65.83
2022-07-30T23:26:30.272Z,65.68
2022-07-30T23:28:59.822Z,66.14
2022-07-30T23:31:29.374Z,65.96
2022-07-30T23:33:58.663Z,66.52
2022-07-30T23:36:28.030Z,66.00
2022-07-30T23:38:57.305Z,66.50
2022-07-30T23:41:29.775Z,66.44
2022-07-30T23:43:58.241Z,67.01
2022-07-30T23:46:27.698Z,67.23
2022-07-30T23:48:57.093Z,67.12
2022-07-30T23:51:26.552Z,67.34
2022-07-30T23:53:58.276Z,67.72
2022-07-30T23:56:27.674Z,67.63
2022-07-30T23:58:56.949Z,67.56
